sensor_id;sensor_type;location;lat;lon;timestamp;temperature;humidity
71942;DHT22;59997;53.300;-6.260;2023-02-05T00:01:51;1.19;91.60
71942;DHT22;59997;53.300;-6.260;2023-02-05T00:04:16;1.02;91.58
71942;DHT22;59997;53.300;-6.260;2023-02-05T00:06:42;1.05;91.62
71942;DHT22;59997;53.300;-6.260;2023-02-05T00:09:07;1.22;91.63
71942;DHT22;59997;53.300;-6.260;2023-02-05T00:11:33;1.26;91.62
71942;DHT22;59997;53.300;-6.260;2023-02-05T00:13:58;1.50;91.74
71942;DHT22;59997;53.300;-6.260;2023-02-05T00:16:24;1.55;91.71
71942;DHT22;59997;53.300;-6.260;2023-02-05T00:18:50;1.48;91.69
71942;DHT22;59997;53.300;-6.260;2023-02-05T00:21:17;1.42;91.71
71942;DHT22;59997;53.300;-6.260;2023-02-05T00:23:43;1.23;91.65
71942;DHT22;59997;53.300;-6.260;2023-02-05T00:26:09;1.25;91.63
71942;DHT22;59997;53.300;-6.260;2023-02-05T00:28:40;1.36;91.84
71942;DHT22;59997;53.300;-6.260;2023-02-05T00:31:14;1.15;91.80
71942;DHT22;59997;53.300;-6.260;2023-02-05T00:33:40;0.95;91.78
71942;DHT22;59997;53.300;-6.260;2023-02-05T00:36:09;0.89;91.72
71942;DHT22;59997;53.300;-6.260;2023-02-05T00:38:35;0.94;91.70
71942;DHT22;59997;53.300;-6.260;2023-02-05T00:41:01;0.91;91.75
71942;DHT22;59997;53.300;-6.260;2023-02-05T00:43:27;0.91;91.91
71942;DHT22;59997;53.300;-6.260;2023-02-05T00:45:53;0.84;91.99
71942;DHT22;59997;53.300;-6.260;2023-02-05T00:48:18;0.94;92.04
71942;DHT22;59997;53.300;-6.260;2023-02-05T00:50:44;0.87;92.03
71942;DHT22;59997;53.300;-6.260;2023-02-05T00:53:11;0.61;91.98
71942;DHT22;59997;53.300;-6.260;2023-02-05T00:55:36;0.52;91.94
71942;DHT22;59997;53.300;-6.260;2023-02-05T00:58:02;0.52;91.91
71942;DHT22;59997;53.300;-6.260;2023-02-05T01:00:27;0.46;92.03
71942;DHT22;59997;53.300;-6.260;2023-02-05T01:02:53;0.60;92.21
71942;DHT22;59997;53.300;-6.260;2023-02-05T01:05:19;0.48;92.24
71942;DHT22;59997;53.300;-6.260;2023-02-05T01:07:45;0.41;92.20
71942;DHT22;59997;53.300;-6.260;2023-02-05T01:10:10;0.43;92.10
71942;DHT22;59997;53.300;-6.260;2023-02-05T01:12:36;0.22;92.01
71942;DHT22;59997;53.300;-6.260;2023-02-05T01:15:05;0.05;91.99
71942;DHT22;59997;53.300;-6.260;2023-02-05T01:17:31;0.25;92.20
71942;DHT22;59997;53.300;-6.260;2023-02-05T01:19:57;0.21;92.28
71942;DHT22;59997;53.300;-6.260;2023-02-05T01:22:22;0.26;92.28
71942;DHT22;59997;53.300;-6.260;2023-02-05T01:24:48;0.22;92.22
71942;DHT22;59997;53.300;-6.260;2023-02-05T01:27:13;0.04;92.24
71942;DHT22;59997;53.300;-6.260;2023-02-05T01:29:39;-0.11;92.23
71942;DHT22;59997;53.300;-6.260;2023-02-05T01:32:04;0.02;92.36
71942;DHT22;59997;53.300;-6.260;2023-02-05T01:34:30;-0.10;92.42
71942;DHT22;59997;53.300;-6.260;2023-02-05T01:36:55;0.11;92.49
71942;DHT22;59997;53.300;-6.260;2023-02-05T01:39:20;0.25;92.44
71942;DHT22;59997;53.300;-6.260;2023-02-05T01:41:46;0.26;92.42
71942;DHT22;59997;53.300;-6.260;2023-02-05T01:44:18;0.30;92.39
71942;DHT22;59997;53.300;-6.260;2023-02-05T01:46:47;0.43;92.36
71942;DHT22;59997;53.300;-6.260;2023-02-05T01:51:48;0.46;92.35
71942;DHT22;59997;53.300;-6.260;2023-02-05T01:54:16;0.38;92.31
71942;DHT22;59997;53.300;-6.260;2023-02-05T01:57:00;0.24;92.28
71942;DHT22;59997;53.300;-6.260;2023-02-05T01:59:29;0.07;92.31
71942;DHT22;59997;53.300;-6.260;2023-02-05T02:01:55;0.39;92.29
71942;DHT22;59997;53.300;-6.260;2023-02-05T02:04:40;0.54;92.31
71942;DHT22;59997;53.300;-6.260;2023-02-05T02:07:10;0.39;92.34
71942;DHT22;59997;53.300;-6.260;2023-02-05T02:09:37;0.22;92.31
71942;DHT22;59997;53.300;-6.260;2023-02-05T02:12:04;0.04;92.27
71942;DHT22;59997;53.300;-6.260;2023-02-05T02:14:31;-0.13;92.32
71942;DHT22;59997;53.300;-6.260;2023-02-05T02:16:59;0.24;92.46
71942;DHT22;59997;53.300;-6.260;2023-02-05T02:20:08;0.09;92.48
71942;DHT22;59997;53.300;-6.260;2023-02-05T02:25:54;-0.21;92.34
71942;DHT22;59997;53.300;-6.260;2023-02-05T02:28:36;-0.19;92.38
71942;DHT22;59997;53.300;-6.260;2023-02-05T02:31:11;-0.24;92.48
71942;DHT22;59997;53.300;-6.260;2023-02-05T02:36:21;-0.20;92.67
71942;DHT22;59997;53.300;-6.260;2023-02-05T02:39:54;-0.52;92.61
71942;DHT22;59997;53.300;-6.260;2023-02-05T02:42:02;-0.45;92.64
71942;DHT22;59997;53.300;-6.260;2023-02-05T02:44:36;-0.23;92.70
71942;DHT22;59997;53.300;-6.260;2023-02-05T02:47:05;-0.44;92.64
71942;DHT22;59997;53.300;-6.260;2023-02-05T02:49:35;-0.50;92.58
71942;DHT22;59997;53.300;-6.260;2023-02-05T02:52:05;-0.33;92.55
71942;DHT22;59997;53.300;-6.260;2023-02-05T02:54:32;-0.38;92.55
71942;DHT22;59997;53.300;-6.260;2023-02-05T02:57:00;-0.44;92.51
71942;DHT22;59997;53.300;-6.260;2023-02-05T02:59:28;-0.19;92.66
71942;DHT22;59997;53.300;-6.260;2023-02-05T03:01:56;0.25;92.68
71942;DHT22;59997;53.300;-6.260;2023-02-05T03:04:44;0.02;92.71
71942;DHT22;59997;53.300;-6.260;2023-02-05T03:07:18;-0.23;92.61
71942;DHT22;59997;53.300;-6.260;2023-02-05T03:09:58;-0.54;92.52
71942;DHT22;59997;53.300;-6.260;2023-02-05T03:12:24;-0.01;92.61
71942;DHT22;59997;53.300;-6.260;2023-02-05T03:14:51;0.04;92.58
71942;DHT22;59997;53.300;-6.260;2023-02-05T03:17:17;-0.27;92.50
71942;DHT22;59997;53.300;-6.260;2023-02-05T03:19:51;-0.64;92.46
71942;DHT22;59997;53.300;-6.260;2023-02-05T03:22:17;-0.60;92.49
71942;DHT22;59997;53.300;-6.260;2023-02-05T03:24:43;-0.24;92.58
71942;DHT22;59997;53.300;-6.260;2023-02-05T03:27:08;-0.02;92.66
71942;DHT22;59997;53.300;-6.260;2023-02-05T03:29:38;-0.27;92.63
71942;DHT22;59997;53.300;-6.260;2023-02-05T03:40:29;-0.48;92.55
71942;DHT22;59997;53.300;-6.260;2023-02-05T03:50:57;-0.64;92.65
71942;DHT22;59997;53.300;-6.260;2023-02-05T03:53:28;-0.76;92.64
71942;DHT22;59997;53.300;-6.260;2023-02-05T03:56:04;-0.83;92.69
71942;DHT22;59997;53.300;-6.260;2023-02-05T03:58:36;-0.68;92.66
71942;DHT22;59997;53.300;-6.260;2023-02-05T04:01:03;-0.95;92.61
71942;DHT22;59997;53.300;-6.260;2023-02-05T04:03:29;-1.23;92.59
71942;DHT22;59997;53.300;-6.260;2023-02-05T04:05:54;-1.23;92.66
71942;DHT22;59997;53.300;-6.260;2023-02-05T04:08:20;-1.06;92.74
71942;DHT22;59997;53.300;-6.260;2023-02-05T04:10:46;-1.30;92.78
71942;DHT22;59997;53.300;-6.260;2023-02-05T04:13:11;-1.44;92.76
71942;DHT22;59997;53.300;-6.260;2023-02-05T04:15:37;-1.51;92.76
71942;DHT22;59997;53.300;-6.260;2023-02-05T04:18:02;-1.67;92.75
71942;DHT22;59997;53.300;-6.260;2023-02-05T04:20:28;-1.82;92.77
71942;DHT22;59997;53.300;-6.260;2023-02-05T04:22:53;-1.70;92.79
71942;DHT22;59997;53.300;-6.260;2023-02-05T04:25:18;-1.52;92.83
71942;DHT22;59997;53.300;-6.260;2023-02-05T04:27:45;-1.49;92.88
71942;DHT22;59997;53.300;-6.260;2023-02-05T04:30:11;-1.54;92.86
71942;DHT22;59997;53.300;-6.260;2023-02-05T04:32:36;-1.15;92.91
71942;DHT22;59997;53.300;-6.260;2023-02-05T04:35:02;-0.75;92.93
71942;DHT22;59997;53.300;-6.260;2023-02-05T04:37:28;-1.01;92.93
71942;DHT22;59997;53.300;-6.260;2023-02-05T04:39:53;-1.28;92.90
71942;DHT22;59997;53.300;-6.260;2023-02-05T04:42:19;-1.20;92.92
71942;DHT22;59997;53.300;-6.260;2023-02-05T04:44:44;-1.04;92.96
71942;DHT22;59997;53.300;-6.260;2023-02-05T04:47:09;-1.30;92.95
71942;DHT22;59997;53.300;-6.260;2023-02-05T04:49:35;-1.47;92.91
71942;DHT22;59997;53.300;-6.260;2023-02-05T04:52:00;-1.60;92.96
71942;DHT22;59997;53.300;-6.260;2023-02-05T04:54:26;-1.65;92.92
71942;DHT22;59997;53.300;-6.260;2023-02-05T04:56:52;-1.70;92.97
71942;DHT22;59997;53.300;-6.260;2023-02-05T04:59:18;-1.90;93.01
71942;DHT22;59997;53.300;-6.260;2023-02-05T05:01:43;-2.00;93.03
71942;DHT22;59997;53.300;-6.260;2023-02-05T05:04:09;-1.51;93.01
71942;DHT22;59997;53.300;-6.260;2023-02-05T05:06:35;-1.52;93.00
71942;DHT22;59997;53.300;-6.260;2023-02-05T05:09:00;-1.70;92.99
71942;DHT22;59997;53.300;-6.260;2023-02-05T05:11:26;-1.76;92.94
71942;DHT22;59997;53.300;-6.260;2023-02-05T05:13:51;-1.83;93.03
71942;DHT22;59997;53.300;-6.260;2023-02-05T05:16:17;-1.89;93.05
71942;DHT22;59997;53.300;-6.260;2023-02-05T05:18:43;-2.05;93.08
71942;DHT22;59997;53.300;-6.260;2023-02-05T05:21:09;-1.90;93.02
71942;DHT22;59997;53.300;-6.260;2023-02-05T05:23:36;-1.95;93.02
71942;DHT22;59997;53.300;-6.260;2023-02-05T05:26:09;-1.52;92.90
71942;DHT22;59997;53.300;-6.260;2023-02-05T05:28:35;-1.07;92.90
71942;DHT22;59997;53.300;-6.260;2023-02-05T05:31:15;-0.99;92.84
71942;DHT22;59997;53.300;-6.260;2023-02-05T05:33:41;-1.01;92.81
71942;DHT22;59997;53.300;-6.260;2023-02-05T05:36:07;-1.01;92.75
71942;DHT22;59997;53.300;-6.260;2023-02-05T05:38:33;-1.00;92.74
71942;DHT22;59997;53.300;-6.260;2023-02-05T05:40:59;-1.14;92.70
71942;DHT22;59997;53.300;-6.260;2023-02-05T05:43:43;-1.39;92.67
71942;DHT22;59997;53.300;-6.260;2023-02-05T05:46:19;-1.63;92.72
71942;DHT22;59997;53.300;-6.260;2023-02-05T05:48:58;-1.91;92.76
71942;DHT22;59997;53.300;-6.260;2023-02-05T05:51:26;-1.95;92.81
71942;DHT22;59997;53.300;-6.260;2023-02-05T05:53:52;-1.86;92.90
71942;DHT22;59997;53.300;-6.260;2023-02-05T05:56:18;-1.87;92.95
71942;DHT22;59997;53.300;-6.260;2023-02-05T05:58:44;-2.01;92.98
71942;DHT22;59997;53.300;-6.260;2023-02-05T06:01:11;-2.19;93.05
71942;DHT22;59997;53.300;-6.260;2023-02-05T06:03:36;-2.19;93.13
71942;DHT22;59997;53.300;-6.260;2023-02-05T06:06:03;-2.07;93.08
71942;DHT22;59997;53.300;-6.260;2023-02-05T06:08:29;-2.07;93.09
71942;DHT22;59997;53.300;-6.260;2023-02-05T06:10:55;-2.22;93.15
71942;DHT22;59997;53.300;-6.260;2023-02-05T06:13:20;-2.25;93.14
71942;DHT22;59997;53.300;-6.260;2023-02-05T06:15:46;-2.41;93.18
71942;DHT22;59997;53.300;-6.260;2023-02-05T06:18:13;-2.46;93.22
71942;DHT22;59997;53.300;-6.260;2023-02-05T06:20:39;-2.29;93.22
71942;DHT22;59997;53.300;-6.260;2023-02-05T06:23:04;-2.21;93.24
71942;DHT22;59997;53.300;-6.260;2023-02-05T06:25:30;-2.12;93.23
71942;DHT22;59997;53.300;-6.260;2023-02-05T06:27:55;-1.90;93.19
71942;DHT22;59997;53.300;-6.260;2023-02-05T06:30:21;-2.01;93.21
71942;DHT22;59997;53.300;-6.260;2023-02-05T06:32:46;-1.97;93.17
71942;DHT22;59997;53.300;-6.260;2023-02-05T06:35:11;-2.05;93.16
71942;DHT22;59997;53.300;-6.260;2023-02-05T06:37:37;-2.19;93.20
71942;DHT22;59997;53.300;-6.260;2023-02-05T06:40:02;-2.38;93.22
71942;DHT22;59997;53.300;-6.260;2023-02-05T06:42:28;-2.43;93.21
71942;DHT22;59997;53.300;-6.260;2023-02-05T06:44:53;-2.05;93.15
71942;DHT22;59997;53.300;-6.260;2023-02-05T06:47:19;-2.04;93.19
71942;DHT22;59997;53.300;-6.260;2023-02-05T06:49:44;-2.12;93.19
71942;DHT22;59997;53.300;-6.260;2023-02-05T06:52:10;-2.29;93.23
71942;DHT22;59997;53.300;-6.260;2023-02-05T06:54:35;-2.18;93.18
71942;DHT22;59997;53.300;-6.260;2023-02-05T06:57:02;-1.76;93.12
71942;DHT22;59997;53.300;-6.260;2023-02-05T06:59:28;-1.62;93.13
71942;DHT22;59997;53.300;-6.260;2023-02-05T07:01:53;-1.76;93.14
71942;DHT22;59997;53.300;-6.260;2023-02-05T07:04:19;-1.79;93.14
71942;DHT22;59997;53.300;-6.260;2023-02-05T07:06:44;-1.63;93.12
71942;DHT22;59997;53.300;-6.260;2023-02-05T07:09:10;-1.47;93.15
71942;DHT22;59997;53.300;-6.260;2023-02-05T07:11:36;-1.39;93.14
71942;DHT22;59997;53.300;-6.260;2023-02-05T07:14:02;-1.38;93.13
71942;DHT22;59997;53.300;-6.260;2023-02-05T07:16:30;-0.99;93.19
71942;DHT22;59997;53.300;-6.260;2023-02-05T07:18:57;-1.01;93.15
71942;DHT22;59997;53.300;-6.260;2023-02-05T07:21:22;-1.17;93.10
71942;DHT22;59997;53.300;-6.260;2023-02-05T07:23:48;-1.18;93.09
71942;DHT22;59997;53.300;-6.260;2023-02-05T07:26:15;-1.11;93.08
71942;DHT22;59997;53.300;-6.260;2023-02-05T07:28:41;-1.14;93.08
71942;DHT22;59997;53.300;-6.260;2023-02-05T07:31:10;-1.28;93.03
71942;DHT22;59997;53.300;-6.260;2023-02-05T07:33:36;-1.38;93.02
71942;DHT22;59997;53.300;-6.260;2023-02-05T07:36:07;-1.41;93.03
71942;DHT22;59997;53.300;-6.260;2023-02-05T07:38:35;-1.23;93.02
71942;DHT22;59997;53.300;-6.260;2023-02-05T07:41:06;-1.17;93.06
71942;DHT22;59997;53.300;-6.260;2023-02-05T07:43:32;-1.01;93.02
71942;DHT22;59997;53.300;-6.260;2023-02-05T07:46:00;-0.72;93.02
71942;DHT22;59997;53.300;-6.260;2023-02-05T07:48:26;-0.62;92.98
71942;DHT22;59997;53.300;-6.260;2023-02-05T07:50:51;-0.71;92.95
71942;DHT22;59997;53.300;-6.260;2023-02-05T07:53:17;-0.97;92.91
71942;DHT22;59997;53.300;-6.260;2023-02-05T07:55:43;-1.14;92.91
71942;DHT22;59997;53.300;-6.260;2023-02-05T07:58:08;-1.03;92.90
71942;DHT22;59997;53.300;-6.260;2023-02-05T08:00:34;-1.17;92.88
71942;DHT22;59997;53.300;-6.260;2023-02-05T08:03:00;-1.30;92.86
71942;DHT22;59997;53.300;-6.260;2023-02-05T08:05:25;-1.30;92.85
71942;DHT22;59997;53.300;-6.260;2023-02-05T08:07:51;-1.41;92.86
71942;DHT22;59997;53.300;-6.260;2023-02-05T08:10:17;-1.47;92.87
71942;DHT22;59997;53.300;-6.260;2023-02-05T08:12:42;-1.56;92.86
71942;DHT22;59997;53.300;-6.260;2023-02-05T08:15:08;-1.37;92.94
71942;DHT22;59997;53.300;-6.260;2023-02-05T08:17:34;-1.47;92.91
71942;DHT22;59997;53.300;-6.260;2023-02-05T08:19:59;-1.48;92.93
71942;DHT22;59997;53.300;-6.260;2023-02-05T08:22:35;-1.37;92.95
71942;DHT22;59997;53.300;-6.260;2023-02-05T08:25:01;-1.25;92.95
71942;DHT22;59997;53.300;-6.260;2023-02-05T08:27:27;-1.17;92.92
71942;DHT22;59997;53.300;-6.260;2023-02-05T08:29:52;-0.79;92.97
71942;DHT22;59997;53.300;-6.260;2023-02-05T08:32:18;-0.54;92.89
71942;DHT22;59997;53.300;-6.260;2023-02-05T08:34:43;-0.61;92.91
71942;DHT22;59997;53.300;-6.260;2023-02-05T08:37:09;-0.54;92.86
71942;DHT22;59997;53.300;-6.260;2023-02-05T08:39:35;-0.44;92.81
71942;DHT22;59997;53.300;-6.260;2023-02-05T08:42:01;-0.24;92.78
71942;DHT22;59997;53.300;-6.260;2023-02-05T08:44:27;-0.09;92.66
71942;DHT22;59997;53.300;-6.260;2023-02-05T08:46:53;-0.02;92.53
71942;DHT22;59997;53.300;-6.260;2023-02-05T08:49:18;0.02;92.43
71942;DHT22;59997;53.300;-6.260;2023-02-05T08:51:44;-0.06;92.32
71942;DHT22;59997;53.300;-6.260;2023-02-05T08:54:10;-0.03;92.23
71942;DHT22;59997;53.300;-6.260;2023-02-05T08:56:41;0.01;92.16
71942;DHT22;59997;53.300;-6.260;2023-02-05T08:59:08;0.12;92.01
71942;DHT22;59997;53.300;-6.260;2023-02-05T09:01:34;0.14;91.88
71942;DHT22;59997;53.300;-6.260;2023-02-05T09:04:02;0.16;91.86
71942;DHT22;59997;53.300;-6.260;2023-02-05T09:06:28;0.22;91.89
71942;DHT22;59997;53.300;-6.260;2023-02-05T09:08:54;0.32;91.81
71942;DHT22;59997;53.300;-6.260;2023-02-05T09:11:21;0.61;91.65
71942;DHT22;59997;53.300;-6.260;2023-02-05T09:13:46;0.84;91.49
71942;DHT22;59997;53.300;-6.260;2023-02-05T09:16:12;0.84;91.26
71942;DHT22;59997;53.300;-6.260;2023-02-05T09:18:37;0.96;90.87
71942;DHT22;59997;53.300;-6.260;2023-02-05T09:21:08;0.98;90.94
71942;DHT22;59997;53.300;-6.260;2023-02-05T09:23:33;0.95;90.89
71942;DHT22;59997;53.300;-6.260;2023-02-05T09:25:59;1.01;90.95
71942;DHT22;59997;53.300;-6.260;2023-02-05T09:28:24;1.09;90.75
71942;DHT22;59997;53.300;-6.260;2023-02-05T09:30:50;1.19;90.42
71942;DHT22;59997;53.300;-6.260;2023-02-05T09:33:16;1.20;90.42
71942;DHT22;59997;53.300;-6.260;2023-02-05T09:35:42;1.32;89.93
71942;DHT22;59997;53.300;-6.260;2023-02-05T09:38:08;1.35;89.63
71942;DHT22;59997;53.300;-6.260;2023-02-05T09:40:49;1.47;89.88
71942;DHT22;59997;53.300;-6.260;2023-02-05T09:46:08;1.70;88.60
71942;DHT22;59997;53.300;-6.260;2023-02-05T09:48:45;1.70;88.89
71942;DHT22;59997;53.300;-6.260;2023-02-05T09:51:15;1.94;88.62
71942;DHT22;59997;53.300;-6.260;2023-02-05T09:53:47;2.10;87.62
71942;DHT22;59997;53.300;-6.260;2023-02-05T09:56:15;2.26;87.42
71942;DHT22;59997;53.300;-6.260;2023-02-05T09:58:45;2.34;87.25
71942;DHT22;59997;53.300;-6.260;2023-02-05T10:03:59;2.95;85.38
71942;DHT22;59997;53.300;-6.260;2023-02-05T10:09:22;3.70;84.96
71942;DHT22;59997;53.300;-6.260;2023-02-05T10:15:16;4.62;82.69
71942;DHT22;59997;53.300;-6.260;2023-02-05T10:20:08;5.25;79.57
71942;DHT22;59997;53.300;-6.260;2023-02-05T10:23:16;5.47;79.69
71942;DHT22;59997;53.300;-6.260;2023-02-05T10:26:00;5.18;81.39
71942;DHT22;59997;53.300;-6.260;2023-02-05T10:31:39;5.11;80.23
71942;DHT22;59997;53.300;-6.260;2023-02-05T10:36:59;4.62;80.85
71942;DHT22;59997;53.300;-6.260;2023-02-05T10:39:28;4.52;81.67
71942;DHT22;59997;53.300;-6.260;2023-02-05T10:41:58;4.53;81.02
71942;DHT22;59997;53.300;-6.260;2023-02-05T10:44:32;4.56;80.88
71942;DHT22;59997;53.300;-6.260;2023-02-05T10:50:35;4.63;80.28
71942;DHT22;59997;53.300;-6.260;2023-02-05T10:53:07;5.04;79.88
71942;DHT22;59997;53.300;-6.260;2023-02-05T10:55:33;5.29;79.97
71942;DHT22;59997;53.300;-6.260;2023-02-05T10:58:01;5.61;77.95
71942;DHT22;59997;53.300;-6.260;2023-02-05T11:00:32;5.83;77.52
71942;DHT22;59997;53.300;-6.260;2023-02-05T11:02:58;5.98;78.25
71942;DHT22;59997;53.300;-6.260;2023-02-05T11:05:35;5.90;77.03
71942;DHT22;59997;53.300;-6.260;2023-02-05T11:08:02;5.81;77.79
71942;DHT22;59997;53.300;-6.260;2023-02-05T11:10:29;6.11;78.25
71942;DHT22;59997;53.300;-6.260;2023-02-05T11:13:20;6.29;77.67
71942;DHT22;59997;53.300;-6.260;2023-02-05T11:16:05;6.02;76.87
71942;DHT22;59997;53.300;-6.260;2023-02-05T11:18:38;5.97;77.06
71942;DHT22;59997;53.300;-6.260;2023-02-05T11:21:05;5.88;77.49
71942;DHT22;59997;53.300;-6.260;2023-02-05T11:23:33;5.66;78.30
71942;DHT22;59997;53.300;-6.260;2023-02-05T11:26:16;5.66;78.42
71942;DHT22;59997;53.300;-6.260;2023-02-05T11:28:42;5.79;79.93
71942;DHT22;59997;53.300;-6.260;2023-02-05T11:31:28;5.85;78.69
71942;DHT22;59997;53.300;-6.260;2023-02-05T11:34:15;6.04;78.50
71942;DHT22;59997;53.300;-6.260;2023-02-05T11:36:52;5.95;78.92
71942;DHT22;59997;53.300;-6.260;2023-02-05T11:39:37;6.25;79.99
71942;DHT22;59997;53.300;-6.260;2023-02-05T11:42:21;6.25;78.04
71942;DHT22;59997;53.300;-6.260;2023-02-05T11:44:53;6.26;78.79
71942;DHT22;59997;53.300;-6.260;2023-02-05T11:47:29;6.50;76.71
71942;DHT22;59997;53.300;-6.260;2023-02-05T11:49:56;6.85;76.28
71942;DHT22;59997;53.300;-6.260;2023-02-05T11:52:28;7.00;74.96
71942;DHT22;59997;53.300;-6.260;2023-02-05T11:54:55;7.02;75.82
71942;DHT22;59997;53.300;-6.260;2023-02-05T12:00:19;7.06;74.62
71942;DHT22;59997;53.300;-6.260;2023-02-05T12:02:45;7.19;74.77
71942;DHT22;59997;53.300;-6.260;2023-02-05T12:07:52;7.28;74.39
71942;DHT22;59997;53.300;-6.260;2023-02-05T12:13:24;7.26;74.07
71942;DHT22;59997;53.300;-6.260;2023-02-05T12:18:39;8.03;72.25
71942;DHT22;59997;53.300;-6.260;2023-02-05T12:21:40;7.65;72.42
71942;DHT22;59997;53.300;-6.260;2023-02-05T12:38:25;8.93;68.50
71942;DHT22;59997;53.300;-6.260;2023-02-05T12:43:56;8.96;67.63
71942;DHT22;59997;53.300;-6.260;2023-02-05T12:46:46;9.24;67.80
71942;DHT22;59997;53.300;-6.260;2023-02-05T12:57:17;9.04;68.23
71942;DHT22;59997;53.300;-6.260;2023-02-05T12:59:51;8.99;69.98
71942;DHT22;59997;53.300;-6.260;2023-02-05T13:02:29;8.89;69.07
71942;DHT22;59997;53.300;-6.260;2023-02-05T13:05:24;8.93;68.94
71942;DHT22;59997;53.300;-6.260;2023-02-05T13:08:36;8.99;70.25
71942;DHT22;59997;53.300;-6.260;2023-02-05T13:11:16;9.01;69.46
71942;DHT22;59997;53.300;-6.260;2023-02-05T13:14:07;8.80;69.82
71942;DHT22;59997;53.300;-6.260;2023-02-05T13:16:43;8.86;70.42
71942;DHT22;59997;53.300;-6.260;2023-02-05T13:19:37;8.70;69.38
71942;DHT22;59997;53.300;-6.260;2023-02-05T13:22:38;8.61;72.29
71942;DHT22;59997;53.300;-6.260;2023-02-05T13:25:39;8.37;70.52
71942;DHT22;59997;53.300;-6.260;2023-02-05T13:28:33;8.26;70.70
71942;DHT22;59997;53.300;-6.260;2023-02-05T13:31:19;8.37;71.34
71942;DHT22;59997;53.300;-6.260;2023-02-05T13:33:45;8.61;69.99
71942;DHT22;59997;53.300;-6.260;2023-02-05T13:36:19;8.41;70.25
71942;DHT22;59997;53.300;-6.260;2023-02-05T13:45:20;8.52;70.30
71942;DHT22;59997;53.300;-6.260;2023-02-05T13:56:06;8.89;71.13
71942;DHT22;59997;53.300;-6.260;2023-02-05T13:58:37;8.73;70.68
71942;DHT22;59997;53.300;-6.260;2023-02-05T14:01:18;8.79;69.66
71942;DHT22;59997;53.300;-6.260;2023-02-05T14:03:57;9.06;68.60
71942;DHT22;59997;53.300;-6.260;2023-02-05T14:06:34;9.24;67.50
71942;DHT22;59997;53.300;-6.260;2023-02-05T14:09:09;9.20;66.75
71942;DHT22;59997;53.300;-6.260;2023-02-05T14:12:05;9.35;67.17
71942;DHT22;59997;53.300;-6.260;2023-02-05T14:14:35;9.36;66.49
71942;DHT22;59997;53.300;-6.260;2023-02-05T14:19:54;9.53;65.64
71942;DHT22;59997;53.300;-6.260;2023-02-05T14:22:42;9.43;66.39
71942;DHT22;59997;53.300;-6.260;2023-02-05T14:30:51;9.55;65.57
71942;DHT22;59997;53.300;-6.260;2023-02-05T14:33:38;9.89;64.99
71942;DHT22;59997;53.300;-6.260;2023-02-05T14:39:02;10.02;64.12
71942;DHT22;59997;53.300;-6.260;2023-02-05T14:44:05;10.35;61.88
71942;DHT22;59997;53.300;-6.260;2023-02-05T14:46:55;10.50;62.48
71942;DHT22;59997;53.300;-6.260;2023-02-05T14:54:49;10.22;62.85
71942;DHT22;59997;53.300;-6.260;2023-02-05T15:00:03;9.80;63.14
71942;DHT22;59997;53.300;-6.260;2023-02-05T15:07:52;9.11;65.08
71942;DHT22;59997;53.300;-6.260;2023-02-05T15:10:25;8.96;65.37
71942;DHT22;59997;53.300;-6.260;2023-02-05T15:13:14;8.87;65.74
71942;DHT22;59997;53.300;-6.260;2023-02-05T15:15:39;8.51;67.12
71942;DHT22;59997;53.300;-6.260;2023-02-05T15:20:34;8.20;71.30
71942;DHT22;59997;53.300;-6.260;2023-02-05T15:23:22;8.11;72.58
71942;DHT22;59997;53.300;-6.260;2023-02-05T15:29:13;8.09;72.40
71942;DHT22;59997;53.300;-6.260;2023-02-05T15:31:44;7.94;71.10
71942;DHT22;59997;53.300;-6.260;2023-02-05T15:42:04;7.52;71.26
71942;DHT22;59997;53.300;-6.260;2023-02-05T15:44:33;7.58;70.97
71942;DHT22;59997;53.300;-6.260;2023-02-05T15:47:01;7.50;72.98
71942;DHT22;59997;53.300;-6.260;2023-02-05T15:49:31;7.52;73.06
71942;DHT22;59997;53.300;-6.260;2023-02-05T15:51:59;7.52;72.97
71942;DHT22;59997;53.300;-6.260;2023-02-05T15:54:25;7.31;73.40
71942;DHT22;59997;53.300;-6.260;2023-02-05T15:56:51;7.12;73.25
71942;DHT22;59997;53.300;-6.260;2023-02-05T15:59:26;6.82;73.40
71942;DHT22;59997;53.300;-6.260;2023-02-05T16:02:07;6.72;72.04
71942;DHT22;59997;53.300;-6.260;2023-02-05T16:04:39;6.96;70.52
71942;DHT22;59997;53.300;-6.260;2023-02-05T16:07:21;6.85;71.47
71942;DHT22;59997;53.300;-6.260;2023-02-05T16:09:51;6.70;72.03
71942;DHT22;59997;53.300;-6.260;2023-02-05T16:12:17;6.81;71.45
71942;DHT22;59997;53.300;-6.260;2023-02-05T16:14:43;6.81;71.73
71942;DHT22;59997;53.300;-6.260;2023-02-05T16:17:18;6.67;72.33
71942;DHT22;59997;53.300;-6.260;2023-02-05T16:22:35;5.99;74.33
71942;DHT22;59997;53.300;-6.260;2023-02-05T16:25:06;5.59;75.29
71942;DHT22;59997;53.300;-6.260;2023-02-05T16:27:40;5.28;76.24
71942;DHT22;59997;53.300;-6.260;2023-02-05T16:30:16;4.95;76.78
71942;DHT22;59997;53.300;-6.260;2023-02-05T16:32:43;4.76;77.30
71942;DHT22;59997;53.300;-6.260;2023-02-05T16:35:24;4.57;77.82
71942;DHT22;59997;53.300;-6.260;2023-02-05T16:37:51;4.39;79.34
71942;DHT22;59997;53.300;-6.260;2023-02-05T16:40:29;4.45;80.79
71942;DHT22;59997;53.300;-6.260;2023-02-05T16:42:56;4.30;80.51
71942;DHT22;59997;53.300;-6.260;2023-02-05T16:45:24;4.14;80.50
71942;DHT22;59997;53.300;-6.260;2023-02-05T16:48:19;3.91;80.83
71942;DHT22;59997;53.300;-6.260;2023-02-05T16:50:46;3.72;81.72
71942;DHT22;59997;53.300;-6.260;2023-02-05T16:53:23;3.46;81.92
71942;DHT22;59997;53.300;-6.260;2023-02-05T16:55:54;3.42;83.59
71942;DHT22;59997;53.300;-6.260;2023-02-05T16:58:26;3.52;84.09
71942;DHT22;59997;53.300;-6.260;2023-02-05T17:00:55;3.51;83.78
71942;DHT22;59997;53.300;-6.260;2023-02-05T17:03:21;3.42;84.12
71942;DHT22;59997;53.300;-6.260;2023-02-05T17:05:57;3.35;84.48
71942;DHT22;59997;53.300;-6.260;2023-02-05T17:08:29;3.13;83.84
71942;DHT22;59997;53.300;-6.260;2023-02-05T17:11:03;2.93;84.10
71942;DHT22;59997;53.300;-6.260;2023-02-05T17:13:40;2.95;84.58
71942;DHT22;59997;53.300;-6.260;2023-02-05T17:16:29;2.89;84.80
71942;DHT22;59997;53.300;-6.260;2023-02-05T17:18:59;2.76;85.05
71942;DHT22;59997;53.300;-6.260;2023-02-05T17:21:27;2.45;84.80
71942;DHT22;59997;53.300;-6.260;2023-02-05T17:23:53;2.13;84.83
71942;DHT22;59997;53.300;-6.260;2023-02-05T17:26:22;2.07;86.21
71942;DHT22;59997;53.300;-6.260;2023-02-05T17:28:54;2.29;86.41
71942;DHT22;59997;53.300;-6.260;2023-02-05T17:31:20;2.17;86.56
71942;DHT22;59997;53.300;-6.260;2023-02-05T17:33:50;2.59;86.50
71942;DHT22;59997;53.300;-6.260;2023-02-05T17:36:16;2.61;85.59
71942;DHT22;59997;53.300;-6.260;2023-02-05T17:38:45;2.31;85.69
71942;DHT22;59997;53.300;-6.260;2023-02-05T17:41:15;2.16;85.67
71942;DHT22;59997;53.300;-6.260;2023-02-05T17:43:59;1.78;85.45
71942;DHT22;59997;53.300;-6.260;2023-02-05T17:46:25;1.54;86.39
71942;DHT22;59997;53.300;-6.260;2023-02-05T17:48:50;1.72;86.90
71942;DHT22;59997;53.300;-6.260;2023-02-05T17:51:21;1.99;86.63
71942;DHT22;59997;53.300;-6.260;2023-02-05T17:53:47;1.89;86.63
71942;DHT22;59997;53.300;-6.260;2023-02-05T17:56:13;2.07;86.23
71942;DHT22;59997;53.300;-6.260;2023-02-05T17:58:39;2.05;86.13
71942;DHT22;59997;53.300;-6.260;2023-02-05T18:01:06;2.09;86.11
71942;DHT22;59997;53.300;-6.260;2023-02-05T18:03:32;2.01;85.92
71942;DHT22;59997;53.300;-6.260;2023-02-05T18:05:58;1.77;85.82
71942;DHT22;59997;53.300;-6.260;2023-02-05T18:08:23;1.61;85.75